Time;durP1;ratioP1;P1;durP2;ratioP2;P2;SDS_P1;SDS_P2;PMS_P1;PMS_P2;Temp;Humidity;BMP_temperature;BMP_pressure;BME280_temperature;BME280_humidity;BME280_pressure;Samples;Min_cycle;Max_cycle;Signal;HPM_P1;HPM_P2
2022/01/27 00:04:15;;;;;;;21.25;9.32;;;;;;;-2.34;86.00;98701.13;5083497;28;20055;-59
2022/01/27 00:06:42;;;;;;;22.30;9.57;;;;;;;-2.35;85.42;98707.41;5073205;28;20044;-56
2022/01/27 00:09:15;;;;;;;24.38;9.93;;;;;;;-2.46;85.59;98703.06;5070073;28;20036;-59
2022/01/27 00:11:45;;;;;;;22.75;9.60;;;;;;;-2.52;86.23;98699.13;5086316;28;20276;-58
2022/01/27 00:14:14;;;;;;;21.25;9.10;;;;;;;-2.56;86.19;98697.72;5070954;28;20097;-59
2022/01/27 00:16:44;;;;;;;24.75;11.38;;;;;;;-2.67;86.45;98692.50;5078081;28;20052;-58
2022/01/27 00:19:11;;;;;;;21.05;10.00;;;;;;;-2.56;86.18;98689.75;5082839;28;20043;-57
2022/01/27 00:21:37;;;;;;;25.58;10.48;;;;;;;-2.62;86.66;98690.28;5083869;28;20053;-59
2022/01/27 00:24:04;;;;;;;18.92;8.30;;;;;;;-2.45;84.99;98687.97;5085197;28;20408;-59
2022/01/27 00:26:31;;;;;;;24.75;10.63;;;;;;;-2.43;85.27;98678.88;5080554;28;20043;-59
2022/01/27 00:28:58;;;;;;;24.77;9.98;;;;;;;-2.51;86.63;98679.56;5068749;28;20101;-57
2022/01/27 00:31:24;;;;;;;22.42;9.93;;;;;;;-2.52;86.10;98669.94;5083151;28;20085;-57
2022/01/27 00:33:53;;;;;;;26.90;11.13;;;;;;;-2.71;85.86;98673.38;5081741;28;20085;-57
2022/01/27 00:36:20;;;;;;;21.95;10.88;;;;;;;-2.84;86.41;98667.47;5085470;28;20055;-58
2022/01/27 00:38:49;;;;;;;23.60;9.82;;;;;;;-2.80;86.85;98669.72;5084883;28;20051;-59
2022/01/27 00:41:19;;;;;;;21.20;9.30;;;;;;;-2.75;85.96;98671.97;5084234;28;20114;-57
2022/01/27 00:43:47;;;;;;;21.42;9.07;;;;;;;-2.77;86.46;98676.56;5073963;28;20082;-58
2022/01/27 00:46:16;;;;;;;24.52;10.07;;;;;;;-2.69;86.20;98674.06;5092411;28;20040;-56
2022/01/27 00:48:48;;;;;;;23.67;9.82;;;;;;;-2.69;86.07;98675.91;5093808;28;20048;-59
2022/01/27 00:51:21;;;;;;;24.50;8.80;;;;;;;-2.70;86.12;98666.28;5089796;28;20089;-59
2022/01/27 00:54:06;;;;;;;24.40;8.80;;;;;;;-2.62;85.63;98675.22;5067500;28;20090;-59
2022/01/27 00:59:23;;;;;;;20.15;9.10;;;;;;;-2.55;84.63;98686.13;5083066;28;20546;-59
2022/01/27 01:02:00;;;;;;;23.67;10.68;;;;;;;-2.59;84.56;98690.03;5097658;28;20043;-59
2022/01/27 01:04:32;;;;;;;21.75;10.15;;;;;;;-2.66;85.63;98689.72;5085737;28;20040;-59
2022/01/27 01:06:59;;;;;;;23.23;9.70;;;;;;;-2.55;85.36;98685.31;5081670;28;20491;-59
2022/01/27 01:14:43;;;;;;;21.77;9.65;;;;;;;-2.45;84.10;98680.00;5085466;28;20041;-59
2022/01/27 01:33:12;;;;;;;17.13;6.93;;;;;;;-2.49;82.49;98690.06;5075111;28;20036;-59
2022/01/27 01:35:48;;;;;;;18.02;8.55;;;;;;;-2.64;82.63;98690.44;5083305;28;20507;-59
2022/01/27 01:38:18;;;;;;;19.83;9.15;;;;;;;-2.82;83.77;98687.56;5069829;28;20044;-59
2022/01/27 01:40:50;;;;;;;20.80;7.88;;;;;;;-2.68;83.15;98674.91;5072009;28;20036;-59
2022/01/27 01:43:17;;;;;;;;;;;;;;;-2.63;82.95;98678.00;5088460;28;20051;-59
2022/01/27 01:45:44;;;;;;;17.55;7.75;;;;;;;-2.55;82.85;98672.88;5092486;28;19923;-58
2022/01/27 01:48:10;;;;;;;19.70;9.52;;;;;;;-2.65;84.22;98677.31;5089750;28;20507;-60
2022/01/27 01:50:38;;;;;;;22.67;8.52;;;;;;;-2.73;84.17;98670.00;5088595;28;20515;-58
2022/01/27 01:53:05;;;;;;;21.08;9.65;;;;;;;-2.69;84.34;98673.25;5081644;28;20036;-59
2022/01/27 01:55:32;;;;;;;28.00;9.88;;;;;;;-2.67;85.65;98666.00;5089536;28;20101;-58
2022/01/27 01:58:00;;;;;;;22.40;8.85;;;;;;;-2.65;83.88;98667.53;5083078;28;20041;-59
2022/01/27 02:00:27;;;;;;;25.63;10.63;;;;;;;-2.75;84.94;98659.56;5068923;28;20063;-60
2022/01/27 02:02:55;;;;;;;20.73;8.32;;;;;;;-2.54;83.73;98653.31;5082196;28;20048;-57
2022/01/27 02:05:26;;;;;;;18.45;8.40;;;;;;;-2.59;83.56;98646.78;5077621;28;20058;-59
2022/01/27 02:19:18;;;;;;;25.77;10.10;;;;;;;-2.98;85.19;98628.91;5084517;28;20064;-58
2022/01/27 02:21:55;;;;;;;19.67;8.93;;;;;;;-3.08;85.97;98621.78;5078514;28;20044;-56
2022/01/27 02:24:25;;;;;;;20.45;8.95;;;;;;;-3.02;85.40;98618.56;5080210;28;20041;-59
2022/01/27 02:26:52;;;;;;;20.17;9.27;;;;;;;-3.13;86.39;98618.69;5072165;28;20641;-59
2022/01/27 02:29:20;;;;;;;17.48;8.23;;;;;;;-2.87;85.53;98616.38;5084093;28;20036;-59
2022/01/27 02:31:49;;;;;;;20.00;9.07;;;;;;;-2.83;85.19;98622.28;5089109;28;20518;-59
2022/01/27 02:34:16;;;;;;;25.40;9.48;;;;;;;-2.84;84.51;98617.13;5088161;28;20078;-58
2022/01/27 02:36:42;;;;;;;16.90;7.57;;;;;;;-2.89;84.57;98628.09;5085636;28;20040;-59
2022/01/27 02:39:10;;;;;;;21.92;9.98;;;;;;;-2.89;85.46;98630.75;5075617;28;20499;-59
2022/01/27 02:41:44;;;;;;;24.42;10.20;;;;;;;-3.06;85.96;98634.91;5080623;28;20058;-59
2022/01/27 02:44:29;;;;;;;23.38;9.38;;;;;;;-2.86;85.96;98627.84;5082275;28;20048;-57
2022/01/27 02:46:56;;;;;;;21.73;10.38;;;;;;;-2.87;85.49;98621.69;5091905;28;20111;-59
2022/01/27 02:49:23;;;;;;;22.67;9.13;;;;;;;-2.85;84.90;98623.41;5085256;28;20040;-57
2022/01/27 02:51:51;;;;;;;19.17;8.68;;;;;;;-2.82;84.47;98620.44;5088687;28;20052;-59
2022/01/27 02:54:18;;;;;;;21.05;10.18;;;;;;;-2.70;84.75;98634.47;5086673;28;20043;-58
2022/01/27 02:56:47;;;;;;;22.30;9.23;;;;;;;-2.64;84.39;98640.06;5087683;28;20036;-59
2022/01/27 02:59:15;;;;;;;23.38;9.65;;;;;;;-2.60;83.45;98643.25;5091275;28;20561;-58
2022/01/27 03:01:46;;;;;;;18.25;8.77;;;;;;;-2.89;84.53;98646.66;5088341;28;20044;-59
2022/01/27 03:04:14;;;;;;;18.40;8.85;;;;;;;-2.78;84.87;98649.22;5082342;28;20098;-57
2022/01/27 03:06:41;;;;;;;22.38;8.93;;;;;;;-2.82;85.15;98655.75;5087382;28;20048;-58
2022/01/27 03:09:08;;;;;;;22.45;10.18;;;;;;;-2.84;85.29;98662.19;5082320;28;20036;-58
2022/01/27 03:11:40;;;;;;;19.52;9.40;;;;;;;-2.99;85.25;98659.88;5085603;28;20101;-58
2022/01/27 03:14:07;;;;;;;24.85;10.45;;;;;;;-3.14;84.88;98665.53;5082715;28;20040;-57
2022/01/27 03:16:34;;;;;;;20.23;8.32;;;;;;;-3.03;84.82;98669.91;5083766;28;20488;-58
2022/01/27 03:19:00;;;;;;;20.65;9.35;;;;;;;-3.05;84.79;98663.06;5085611;28;20044;-59
2022/01/27 03:21:28;;;;;;;19.52;8.55;;;;;;;-3.08;85.77;98655.38;5067615;28;20519;-59
2022/01/27 03:23:55;;;;;;;20.52;9.13;;;;;;;-2.93;84.90;98650.56;5080644;28;20052;-58
2022/01/27 03:26:22;;;;;;;25.10;9.63;;;;;;;-3.09;85.34;98651.06;5085697;28;20052;-58
2022/01/27 03:28:49;;;;;;;22.88;9.32;;;;;;;-3.06;85.54;98654.25;5073715;28;20738;-58
2022/01/27 03:31:15;;;;;;;23.83;9.60;;;;;;;-3.07;85.37;98654.41;5085805;28;20098;-59
2022/01/27 03:33:43;;;;;;;21.70;9.75;;;;;;;-3.15;86.46;98647.13;5075982;28;20526;-56
2022/01/27 03:36:10;;;;;;;24.35;9.93;;;;;;;-3.17;86.11;98641.13;5066492;28;20052;-58
2022/01/27 03:38:37;;;;;;;23.23;10.50;;;;;;;-3.12;85.76;98636.25;5080315;28;20100;-57
2022/01/27 03:41:06;;;;;;;25.05;10.98;;;;;;;-3.12;86.47;98617.72;5068952;28;20043;-59
2022/01/27 03:43:34;;;;;;;28.25;12.63;;;;;;;-3.12;86.65;98623.00;5073403;28;20052;-59
2022/01/27 03:46:02;;;;;;;28.02;10.85;;;;;;;-3.14;87.43;98627.59;5079186;28;20045;-59
2022/01/27 03:48:29;;;;;;;29.75;10.35;;;;;;;-2.99;86.97;98624.59;5081740;28;20039;-58
2022/01/27 03:50:55;;;;;;;22.10;9.65;;;;;;;-2.96;86.53;98606.59;5086366;28;20039;-57
2022/01/27 03:53:22;;;;;;;28.80;11.40;;;;;;;-2.89;86.57;98596.28;5086043;28;20093;-59
2022/01/27 03:55:50;;;;;;;26.50;10.95;;;;;;;-2.90;85.45;98602.59;5072308;28;20040;-59
2022/01/27 03:58:17;;;;;;;25.45;10.48;;;;;;;-2.79;85.32;98593.69;5071312;28;20048;-59
2022/01/27 04:00:44;;;;;;;27.77;10.02;;;;;;;-2.85;85.58;98592.41;5086873;28;20040;-59
2022/01/27 04:03:13;;;;;;;28.52;10.90;;;;;;;-2.95;86.32;98586.25;5087140;28;20039;-59
2022/01/27 04:05:44;;;;;;;26.27;11.38;;;;;;;-3.04;86.13;98587.88;5068142;28;20098;-59
2022/01/27 04:08:13;;;;;;;21.05;9.52;;;;;;;-3.06;86.21;98588.00;5066903;28;20404;-58
2022/01/27 04:10:40;;;;;;;26.38;10.65;;;;;;;-3.17;86.57;98580.19;5066213;28;20044;-59
2022/01/27 04:13:07;;;;;;;23.08;10.48;;;;;;;-2.99;86.07;98584.84;5067673;28;20055;-59
2022/01/27 04:15:35;;;;;;;24.92;10.20;;;;;;;-2.90;86.40;98589.31;5071710;28;20224;-59
2022/01/27 04:18:03;;;;;;;26.60;11.38;;;;;;;-2.79;85.43;98569.81;5086388;28;20056;-59
2022/01/27 04:20:30;;;;;;;28.88;12.18;;;;;;;-2.97;85.93;98565.19;5069197;28;20047;-59
2022/01/27 04:22:56;;;;;;;28.50;11.82;;;;;;;-2.89;85.75;98572.44;5086550;28;20042;-59
2022/01/27 04:25:23;;;;;;;28.60;11.82;;;;;;;-2.97;86.21;98586.38;5081072;28;20040;-59
2022/01/27 04:27:55;;;;;;;25.85;9.93;;;;;;;-2.98;86.78;98578.56;5086695;28;20086;-59
2022/01/27 04:30:24;;;;;;;28.00;10.05;;;;;;;-2.83;86.41;98577.22;5081480;28;20032;-59
2022/01/27 04:32:55;;;;;;;25.90;11.48;;;;;;;-2.68;85.50;98576.81;5087032;28;20048;-58
2022/01/27 04:35:25;;;;;;;25.93;9.70;;;;;;;-2.62;84.51;98569.16;5079810;28;20624;-58
2022/01/27 04:40:48;;;;;;;23.13;10.13;;;;;;;-2.66;84.87;98586.31;5075447;28;20527;-57
2022/01/27 04:43:39;;;;;;;22.67;9.57;;;;;;;-2.72;84.79;98584.22;5085960;28;20169;-57
2022/01/27 04:46:22;;;;;;;25.33;11.05;;;;;;;-2.75;84.58;98573.88;5077682;28;20044;-59
2022/01/27 04:48:55;;;;;;;23.85;9.50;;;;;;;-2.71;84.75;98593.84;5083863;28;20040;-59
2022/01/27 04:51:23;;;;;;;21.67;9.38;;;;;;;-2.63;83.92;98585.19;5073286;28;20051;-59
2022/01/27 04:53:58;;;;;;;23.92;9.80;;;;;;;-2.57;84.03;98581.16;5073845;28;20123;-59
2022/01/27 04:56:27;;;;;;;21.65;8.73;;;;;;;-2.57;83.62;98575.84;5065864;28;20105;-59
2022/01/27 04:58:58;;;;;;;22.95;9.93;;;;;;;-2.54;83.76;98581.72;5089561;28;20065;-59
2022/01/27 05:01:32;;;;;;;;;;;;;;;-2.53;82.75;98583.41;5086360;28;20043;-57
2022/01/27 05:04:04;;;;;;;24.50;10.90;;;;;;;-2.71;83.63;98569.97;5079247;28;19920;-59
2022/01/27 05:06:30;;;;;;;28.25;10.48;;;;;;;-2.82;84.44;98575.38;5085358;28;20078;-58
2022/01/27 05:08:57;;;;;;;22.52;9.73;;;;;;;-2.79;84.60;98572.47;5081695;28;20040;-58
2022/01/27 05:11:37;;;;;;;22.65;9.98;;;;;;;-2.91;84.43;98580.53;5078051;28;20110;-59
2022/01/27 05:14:14;;;;;;;21.52;9.80;;;;;;;-2.73;83.62;98560.50;5072219;28;20642;-59
2022/01/27 05:16:40;;;;;;;29.88;11.00;;;;;;;-2.89;84.54;98562.69;5085257;28;20109;-59
2022/01/27 05:19:07;;;;;;;27.35;11.88;;;;;;;-3.09;85.81;98563.59;5084459;28;20044;-58
2022/01/27 05:21:34;;;;;;;24.00;10.15;;;;;;;-3.08;85.54;98562.63;5084567;28;20044;-57
2022/01/27 05:24:02;;;;;;;24.15;11.13;;;;;;;-2.89;83.80;98549.44;5069005;28;20508;-59
2022/01/27 05:26:29;;;;;;;23.65;12.27;;;;;;;-3.23;85.34;98555.06;5074881;28;20465;-59
2022/01/27 05:28:56;;;;;;;25.98;11.85;;;;;;;-3.25;85.09;98549.03;5069320;28;20098;-58
2022/01/27 05:31:23;;;;;;;27.17;10.30;;;;;;;-3.05;84.70;98557.06;5083664;28;20109;-58
2022/01/27 05:33:49;;;;;;;23.73;9.95;;;;;;;-3.05;83.97;98551.75;5070593;28;20051;-59
2022/01/27 05:36:16;;;;;;;25.52;10.60;;;;;;;-3.19;84.87;98551.16;5074441;28;20392;-59
2022/01/27 05:38:43;;;;;;;24.23;9.23;;;;;;;-3.23;85.24;98563.00;5084921;28;20612;-59
2022/01/27 05:41:09;;;;;;;21.27;9.45;;;;;;;-3.14;84.62;98570.16;5071355;28;20449;-59
2022/01/27 05:43:36;;;;;;;19.58;8.68;;;;;;;-3.09;84.68;98585.66;5076463;28;20633;-58
2022/01/27 05:46:04;;;;;;;22.27;8.82;;;;;;;-3.09;84.42;98582.16;5084738;28;20070;-59
2022/01/27 05:48:30;;;;;;;22.08;10.15;;;;;;;-3.07;84.06;98585.50;5083984;28;20125;-59
2022/01/27 05:50:57;;;;;;;22.70;10.43;;;;;;;-3.09;84.38;98580.34;5084652;28;20044;-59
2022/01/27 05:53:24;;;;;;;24.85;11.35;;;;;;;-3.10;84.53;98589.25;5072222;28;20044;-59
2022/01/27 05:55:51;;;;;;;24.73;10.05;;;;;;;-3.03;84.19;98574.50;5077223;28;20059;-59
2022/01/27 05:58:19;;;;;;;25.02;12.10;;;;;;;-3.21;85.73;98573.47;5087822;28;20044;-59
2022/01/27 06:00:45;;;;;;;20.13;9.90;;;;;;;-3.30;85.64;98585.69;5091136;28;20109;-59
2022/01/27 06:03:12;;;;;;;24.40;10.05;;;;;;;-3.03;85.23;98581.59;5082256;28;20068;-59
2022/01/27 06:05:39;;;;;;;21.40;10.35;;;;;;;-3.13;84.66;98582.41;5073076;28;20101;-59
2022/01/27 06:08:05;;;;;;;23.70;9.32;;;;;;;-3.11;84.88;98581.44;5084532;28;20054;-58
2022/01/27 06:10:32;;;;;;;25.38;11.02;;;;;;;-3.13;84.84;98586.91;5083378;28;20404;-59
2022/01/27 06:12:58;;;;;;;25.08;10.20;;;;;;;-3.03;85.17;98594.84;5076500;28;20079;-59
2022/01/27 06:15:26;;;;;;;25.17;9.93;;;;;;;-2.90;83.60;98595.47;5084258;28;20090;-58
2022/01/27 06:17:54;;;;;;;20.42;10.13;;;;;;;-2.89;84.18;98593.66;5084818;28;20043;-59
2022/01/27 06:20:21;;;;;;;32.28;10.85;;;;;;;-3.03;84.58;98585.09;5084986;28;20058;-57
2022/01/27 06:22:48;;;;;;;30.35;12.98;;;;;;;-3.13;85.34;98589.53;5076216;28;20092;-59
2022/01/27 06:25:16;;;;;;;25.00;10.85;;;;;;;-3.22;85.45;98592.97;5085459;28;20039;-59
2022/01/27 06:27:43;;;;;;;28.25;12.57;;;;;;;-3.30;85.98;98588.34;5088103;28;20503;-58
2022/01/27 06:30:12;;;;;;;31.15;13.45;;;;;;;-3.25;86.20;98604.69;5088633;28;20518;-59
2022/01/27 06:32:39;;;;;;;34.25;13.88;;;;;;;-3.27;85.94;98596.03;5081076;28;20048;-59
2022/01/27 06:35:06;;;;;;;26.73;10.73;;;;;;;-3.26;86.02;98592.41;5087776;28;20781;-59
2022/01/27 06:37:35;;;;;;;23.67;11.90;;;;;;;-3.26;85.96;98613.59;5083182;28;20093;-59
2022/01/27 06:40:04;;;;;;;31.90;13.60;;;;;;;-3.14;85.51;98606.41;5087043;28;20044;-59
2022/01/27 06:42:30;;;;;;;31.20;12.18;;;;;;;-3.31;85.91;98608.69;5068141;28;20036;-58
2022/01/27 06:44:57;;;;;;;31.38;12.25;;;;;;;-3.29;86.08;98598.81;5088852;28;20044;-59
2022/01/27 06:47:23;;;;;;;29.50;12.68;;;;;;;-3.23;85.57;98591.28;5089903;28;20043;-59
2022/01/27 06:49:50;;;;;;;33.80;14.20;;;;;;;-3.28;87.11;98589.06;5089773;28;20047;-58
2022/01/27 06:52:19;;;;;;;36.03;15.43;;;;;;;-3.24;86.24;98597.56;5089406;28;20036;-59
2022/01/27 06:54:49;;;;;;;32.45;13.35;;;;;;;-3.23;85.70;98593.94;5094777;28;20035;-59
2022/01/27 06:57:15;;;;;;;31.15;11.23;;;;;;;-3.29;86.10;98593.50;5090411;28;20560;-59
2022/01/27 06:59:42;;;;;;;30.92;13.23;;;;;;;-3.50;86.15;98606.81;5090450;28;20051;-59
2022/01/27 07:02:09;;;;;;;32.95;12.88;;;;;;;-3.50;87.15;98601.50;5070196;28;20037;-59
2022/01/27 07:04:36;;;;;;;23.02;10.20;;;;;;;-3.53;86.73;98604.41;5067783;28;20047;-59
2022/01/27 07:07:03;;;;;;;28.77;13.05;;;;;;;-3.50;87.03;98603.31;5078900;28;20043;-59
2022/01/27 07:09:30;;;;;;;30.58;12.80;;;;;;;-3.57;86.99;98611.75;5105386;28;20073;-59
2022/01/27 07:11:56;;;;;;;36.88;13.90;;;;;;;-3.58;86.34;98611.91;5100436;28;20139;-58
2022/01/27 07:14:23;;;;;;;34.28;13.43;;;;;;;-3.60;86.96;98614.69;5095055;28;20043;-58
2022/01/27 07:16:50;;;;;;;33.40;13.35;;;;;;;-3.61;87.37;98626.22;5096960;28;20040;-59
2022/01/27 07:19:17;;;;;;;34.75;13.05;;;;;;;-3.59;87.19;98626.94;5078615;28;20830;-62
2022/01/27 07:21:43;;;;;;;31.20;12.93;;;;;;;-3.53;86.52;98634.38;5085727;28;20040;-62
2022/01/27 07:24:10;;;;;;;34.60;14.23;;;;;;;-3.54;87.56;98622.09;5085605;28;20048;-63
2022/01/27 07:26:36;;;;;;;37.25;14.32;;;;;;;-3.51;87.44;98631.59;5087674;28;20047;-62
2022/01/27 07:29:03;;;;;;;38.38;14.80;;;;;;;-3.45;86.55;98627.59;5093591;28;20048;-62
2022/01/27 07:31:29;;;;;;;41.28;16.63;;;;;;;-3.49;86.42;98621.72;5080868;28;20071;-62
2022/01/27 07:33:56;;;;;;;37.35;13.63;;;;;;;-3.38;86.60;98623.44;5088751;28;20067;-60
2022/01/27 07:36:22;;;;;;;32.17;15.48;;;;;;;-3.51;87.40;98625.47;5086456;28;20673;-60
2022/01/27 07:38:49;;;;;;;40.20;14.63;;;;;;;-3.61;87.46;98620.94;5096848;28;20534;-62
2022/01/27 07:41:17;;;;;;;27.77;13.23;;;;;;;-3.37;87.00;98626.91;5085776;28;20265;-62
2022/01/27 07:43:45;;;;;;;37.45;15.00;;;;;;;-3.59;86.88;98624.31;5070602;28;20565;-62
2022/01/27 07:46:13;;;;;;;41.25;15.70;;;;;;;-3.64;87.53;98626.50;5076268;28;20520;-63
2022/01/27 07:48:40;;;;;;;46.15;16.35;;;;;;;-3.66;87.53;98634.56;5067219;28;20316;-62
2022/01/27 07:51:08;;;;;;;33.20;13.48;;;;;;;-3.66;87.81;98625.78;5077395;28;20063;-61
2022/01/27 07:53:35;;;;;;;44.55;14.60;;;;;;;-3.64;88.39;98628.31;5096648;28;20039;-62
2022/01/27 07:56:22;;;;;;;48.40;16.98;;;;;;;-3.68;87.81;98625.91;5067025;28;20075;-62
2022/01/27 07:58:49;;;;;;;37.28;13.68;;;;;;;-3.71;87.41;98626.19;5094151;28;20036;-62
2022/01/27 08:01:15;;;;;;;29.70;14.18;;;;;;;-3.74;88.15;98620.28;5082261;28;20044;-62
2022/01/27 08:03:42;;;;;;;35.47;14.40;;;;;;;-3.77;88.62;98623.22;5079005;28;20075;-62
2022/01/27 08:06:08;;;;;;;31.50;12.13;;;;;;;-3.68;88.46;98620.63;5063745;28;20040;-61
2022/01/27 08:08:35;;;;;;;35.17;14.70;;;;;;;-3.27;86.56;98628.66;5098924;28;20100;-62
2022/01/27 08:11:02;;;;;;;35.95;14.95;;;;;;;-3.45;85.92;98624.94;5089779;28;20059;-61
2022/01/27 08:13:29;;;;;;;26.05;12.40;;;;;;;-3.54;86.92;98624.75;5091267;28;20117;-62
2022/01/27 08:15:55;;;;;;;24.05;10.95;;;;;;;-3.28;85.72;98623.50;5079755;28;20051;-62
2022/01/27 08:18:42;;;;;;;31.70;11.93;;;;;;;-3.30;85.83;98631.56;5069590;28;20048;-61
2022/01/27 08:21:08;;;;;;;34.92;12.50;;;;;;;-3.54;86.89;98642.47;5086742;28;20400;-62
2022/01/27 08:23:37;;;;;;;37.22;17.63;;;;;;;-3.59;87.06;98636.69;5082202;28;20048;-62
2022/01/27 08:26:09;;;;;;;24.08;9.20;;;;;;;-3.63;87.24;98638.78;5080919;28;20044;-62
2022/01/27 08:28:53;;;;;;;29.30;12.25;;;;;;;-3.55;86.62;98620.44;5083422;28;20453;-62
2022/01/27 08:31:22;;;;;;;38.80;15.45;;;;;;;-3.76;86.85;98614.31;5084896;28;20069;-61
2022/01/27 08:33:48;;;;;;;29.75;11.45;;;;;;;-3.66;86.52;98617.84;5084154;28;20055;-63
2022/01/27 08:36:17;;;;;;;26.35;9.13;;;;;;;-3.35;86.28;98617.03;5093151;28;20138;-63
2022/01/27 08:38:44;;;;;;;29.10;12.23;;;;;;;-3.41;85.75;98621.06;5087928;28;20097;-62
2022/01/27 08:41:11;;;;;;;23.85;8.05;;;;;;;-3.16;84.38;98619.78;5084014;28;20055;-62
2022/01/27 08:43:37;;;;;;;25.90;9.77;;;;;;;-3.08;84.80;98613.81;5097092;28;20043;-62
2022/01/27 08:46:04;;;;;;;32.85;11.52;;;;;;;-3.12;84.37;98615.06;5081730;28;20054;-62
2022/01/27 08:48:32;;;;;;;35.15;13.43;;;;;;;-3.19;84.66;98603.31;5085293;28;20040;-62
2022/01/27 08:51:01;;;;;;;36.03;14.20;;;;;;;-3.29;85.18;98590.88;5082522;28;20068;-62
2022/01/27 08:53:48;;;;;;;24.95;6.25;;;;;;;-3.07;84.86;98590.78;5082898;28;20040;-63
2022/01/27 08:56:17;;;;;;;24.52;9.98;;;;;;;-2.92;83.82;98585.97;5083045;28;20044;-63
2022/01/27 08:59:04;;;;;;;16.00;7.63;;;;;;;-2.88;84.17;98595.31;5072804;28;20075;-64
2022/01/27 09:01:31;;;;;;;28.05;9.63;;;;;;;-2.73;83.62;98579.03;5080691;28;20032;-62
2022/01/27 09:03:59;;;;;;;21.77;10.07;;;;;;;-2.60;83.22;98582.28;5083626;28;20091;-63
2022/01/27 09:06:28;;;;;;;23.60;9.63;;;;;;;-2.40;82.46;98579.66;5083276;28;20202;-63
2022/01/27 09:08:56;;;;;;;22.83;7.82;;;;;;;-2.60;83.07;98574.31;5080567;28;20554;-62
2022/01/27 09:11:23;;;;;;;29.45;11.75;;;;;;;-2.70;82.98;98569.00;5076118;28;20094;-63
2022/01/27 09:14:09;;;;;;;23.40;10.52;;;;;;;-2.57;83.21;98567.91;5082658;28;20308;-65
2022/01/27 09:16:36;;;;;;;16.10;6.68;;;;;;;-2.31;82.73;98575.31;5084051;28;20567;-64
2022/01/27 09:19:11;;;;;;;23.35;8.95;;;;;;;-2.26;82.82;98565.13;5071536;28;20403;-63
2022/01/27 09:21:46;;;;;;;21.45;9.32;;;;;;;-2.32;82.58;98571.00;5075431;28;20059;-63
2022/01/27 09:24:16;;;;;;;13.88;5.35;;;;;;;-2.23;82.41;98575.44;5073726;28;20036;-63
2022/01/27 09:29:14;;;;;;;16.55;7.88;;;;;;;-2.01;82.29;98571.69;5065684;28;20620;-63
2022/01/27 09:31:41;;;;;;;20.30;10.00;;;;;;;-2.09;82.78;98579.50;5080976;28;20111;-63
2022/01/27 09:34:27;;;;;;;21.40;8.38;;;;;;;-2.02;82.69;98564.69;5079824;28;20075;-63
2022/01/27 09:36:54;;;;;;;22.63;8.98;;;;;;;-2.13;83.63;98564.84;5070166;28;20036;-62
2022/01/27 09:39:23;;;;;;;27.27;11.90;;;;;;;-2.09;83.65;98569.72;5065798;28;20070;-63
2022/01/27 09:41:53;;;;;;;27.17;11.43;;;;;;;-1.98;83.26;98565.25;5072104;28;20128;-63
2022/01/27 09:44:24;;;;;;;19.05;9.18;;;;;;;-1.81;82.67;98563.66;5074727;28;20044;-64
2022/01/27 09:46:52;;;;;;;24.02;9.38;;;;;;;-1.96;83.60;98560.63;5077458;28;20571;-66
2022/01/27 09:49:30;;;;;;;22.60;8.75;;;;;;;-1.94;83.39;98556.03;5068682;28;20099;-67
2022/01/27 09:51:56;;;;;;;15.05;6.50;;;;;;;-1.74;83.67;98553.31;5078094;28;20040;-64
2022/01/27 09:54:23;;;;;;;19.23;8.23;;;;;;;-1.80;83.63;98548.59;5069917;28;20430;-62
2022/01/27 09:56:52;;;;;;;17.85;7.55;;;;;;;-1.76;83.64;98548.16;5069017;28;20098;-63
2022/01/27 09:59:19;;;;;;;23.45;8.65;;;;;;;-1.73;83.82;98541.72;5090378;28;20050;-64
2022/01/27 10:01:54;;;;;;;16.45;6.30;;;;;;;-1.52;83.55;98540.69;5097097;28;20569;-63
2022/01/27 10:04:21;;;;;;;20.33;7.35;;;;;;;-1.51;82.53;98539.69;5083364;28;20051;-62
2022/01/27 10:06:55;;;;;;;12.93;4.93;;;;;;;-1.36;81.86;98548.03;5077015;28;20051;-63
2022/01/27 10:09:26;;;;;;;15.18;6.85;;;;;;;-1.40;82.77;98544.00;5084261;28;20039;-63
2022/01/27 10:11:53;;;;;;;17.83;8.93;;;;;;;-1.39;82.25;98553.63;5072048;28;20032;-64
2022/01/27 10:14:26;;;;;;;14.02;7.25;;;;;;;-1.33;83.08;98558.38;5071930;28;20051;-63
2022/01/27 10:16:56;;;;;;;18.58;8.38;;;;;;;-1.25;82.28;98547.81;5087940;28;20040;-63
2022/01/27 10:19:23;;;;;;;14.80;6.80;;;;;;;-1.12;81.59;98541.34;5080441;28;20039;-64
2022/01/27 10:21:50;;;;;;;16.23;6.45;;;;;;;-1.03;81.19;98543.13;5084672;28;20044;-64
2022/01/27 10:24:19;;;;;;;18.92;8.10;;;;;;;-1.19;81.91;98535.78;5079801;28;20453;-63
2022/01/27 10:26:53;;;;;;;16.75;6.30;;;;;;;-1.21;82.32;98541.22;5079558;28;20039;-62
2022/01/27 10:29:36;;;;;;;18.17;6.55;;;;;;;-1.16;82.24;98539.97;5078821;28;20048;-63
2022/01/27 10:32:05;;;;;;;15.45;7.43;;;;;;;-1.11;81.94;98549.16;5082773;28;20097;-63
2022/01/27 10:34:55;;;;;;;13.55;5.93;;;;;;;-1.03;81.73;98539.63;5090352;28;20587;-63
2022/01/27 10:37:22;;;;;;;14.25;6.03;;;;;;;-0.98;81.64;98543.50;5082928;28;20074;-63
2022/01/27 10:39:48;;;;;;;13.55;6.35;;;;;;;-0.87;81.61;98534.50;5092827;28;20048;-64
2022/01/27 10:42:20;;;;;;;16.98;7.50;;;;;;;-1.12;82.74;98534.22;5086267;28;20036;-64
2022/01/27 10:44:54;;;;;;;15.05;6.30;;;;;;;-1.09;83.32;98531.25;5082418;28;20119;-64
2022/01/27 10:47:28;;;;;;;14.60;6.57;;;;;;;-1.01;83.19;98530.50;5085928;28;20040;-63
2022/01/27 10:50:04;;;;;;;16.65;8.00;;;;;;;-0.91;82.74;98525.16;5085983;28;20040;-64
2022/01/27 10:52:46;;;;;;;19.10;7.53;;;;;;;-1.00;83.67;98532.19;5081835;28;20046;-63
2022/01/27 10:55:19;;;;;;;16.30;8.90;;;;;;;-0.84;82.29;98536.00;5094250;28;20048;-63
2022/01/27 10:57:50;;;;;;;14.00;7.47;;;;;;;-0.72;82.18;98534.81;5082943;28;20515;-64
2022/01/27 11:00:20;;;;;;;17.00;7.13;;;;;;;-0.65;81.15;98532.38;5085168;28;20743;-64
2022/01/27 11:02:47;;;;;;;15.27;7.80;;;;;;;-0.79;82.52;98533.75;5079701;28;20044;-64
2022/01/27 11:05:17;;;;;;;20.85;8.55;;;;;;;-0.89;82.88;98522.34;5084403;28;20044;-63
2022/01/27 11:07:45;;;;;;;15.25;7.43;;;;;;;-0.89;82.71;98515.19;5089109;28;20056;-63
2022/01/27 11:10:15;;;;;;;20.55;7.95;;;;;;;-0.73;82.42;98511.88;5081527;28;20043;-63
2022/01/27 11:12:43;;;;;;;19.40;7.90;;;;;;;-0.79;82.73;98513.31;5096880;28;20032;-64
2022/01/27 11:15:16;;;;;;;17.25;8.25;;;;;;;-0.60;81.70;98510.63;5087051;28;20044;-63
2022/01/27 11:17:44;;;;;;;17.55;7.35;;;;;;;-0.54;81.85;98502.91;5084743;28;20109;-64
2022/01/27 11:20:38;;;;;;;17.30;7.97;;;;;;;-0.33;81.66;98500.91;5083645;28;20399;-64
2022/01/27 11:23:44;;;;;;;18.67;8.75;;;;;;;-0.34;81.43;98488.59;5083738;28;20098;-64
2022/01/27 11:25:59;;;;;;;15.32;6.93;;;;;;;-0.16;81.00;98497.38;5083362;28;20047;-64
2022/01/27 11:28:26;;;;;;;16.40;7.10;;;;;;;0.00;79.87;98495.84;5083282;28;20032;-64
2022/01/27 11:31:16;;;;;;;15.73;6.93;;;;;;;0.07;80.01;98499.53;5077798;28;20052;-63
2022/01/27 11:33:57;;;;;;;18.13;7.43;;;;;;;-0.01;79.99;98500.31;5082266;28;20044;-64
2022/01/27 11:36:26;;;;;;;16.45;8.15;;;;;;;-0.24;81.40;98496.47;5075364;28;20451;-64
2022/01/27 11:38:52;;;;;;;14.50;7.25;;;;;;;0.02;80.89;98488.53;5077075;28;20043;-62
2022/01/27 11:41:42;;;;;;;13.88;5.50;;;;;;;0.19;79.99;98488.63;5086402;28;20044;-63
2022/01/27 11:44:24;;;;;;;21.35;10.50;;;;;;;0.09;81.03;98489.56;5075606;28;20508;-65
2022/01/27 11:47:10;;;;;;;;;;;;;;;0.17;80.77;98483.44;5080255;28;20036;-63
2022/01/27 11:50:02;;;;;;;16.60;8.55;;;;;;;0.11;80.90;98478.78;5083326;28;19924;-64
2022/01/27 11:52:32;;;;;;;19.50;9.27;;;;;;;0.05;81.74;98464.25;5083734;28;20036;-63
2022/01/27 11:55:24;;;;;;;21.70;9.70;;;;;;;0.07;81.19;98454.25;5086464;28;20051;-64
2022/01/27 11:58:12;;;;;;;17.98;8.27;;;;;;;0.05;81.52;98450.94;5061504;28;20066;-64
2022/01/27 12:00:40;;;;;;;18.00;8.00;;;;;;;0.26;81.62;98439.06;5087787;28;20060;-64
2022/01/27 12:03:07;;;;;;;23.17;11.35;;;;;;;0.32;82.03;98438.41;5079604;28;20393;-64
2022/01/27 12:05:39;;;;;;;18.85;7.80;;;;;;;0.57;81.13;98441.19;5083861;28;20474;-64
2022/01/27 12:08:12;;;;;;;16.58;6.50;;;;;;;0.72;80.88;98443.22;5090315;28;20108;-64
2022/01/27 12:10:44;;;;;;;13.85;6.85;;;;;;;0.80;80.85;98434.44;5104380;28;20066;-63
2022/01/27 12:13:27;;;;;;;;;;;;;;;0.81;81.55;98436.91;5086745;28;20032;-63
2022/01/27 12:19:10;;;;;;;12.13;5.93;;;;;;;1.12;82.39;98435.47;5075148;28;20052;-62
2022/01/27 12:21:44;;;;;;;8.68;4.28;;;;;;;1.26;82.19;98434.00;5079289;28;20044;-65
2022/01/27 12:24:11;;;;;;;11.00;4.63;;;;;;;1.37;81.78;98439.00;5082914;28;20070;-64